createdAt,value
2018-08-24T00:01:52.223Z,95.60
2018-08-24T00:04:20.800Z,95.60
2018-08-24T00:06:49.272Z,95.90
2018-08-24T00:09:21.930Z,95.70
2018-08-24T00:11:50.545Z,95.70
2018-08-24T00:14:18.918Z,96.00
2018-08-24T00:16:47.378Z,96.70
2018-08-24T00:19:16.625Z,96.90
2018-08-24T00:21:45.740Z,97.30
2018-08-24T00:24:14.731Z,97.10
2018-08-24T00:26:43.248Z,97.00
2018-08-24T00:29:11.877Z,96.50
2018-08-24T00:31:40.692Z,96.00
2018-08-24T00:34:09.333Z,95.60
2018-08-24T00:36:37.739Z,96.30
2018-08-24T00:39:08.168Z,96.50
2018-08-24T00:41:36.963Z,96.50
2018-08-24T00:44:05.411Z,96.60
2018-08-24T00:46:33.920Z,96.40
2018-08-24T00:49:02.481Z,96.20
2018-08-24T00:51:30.877Z,95.60
2018-08-24T00:53:59.299Z,95.50
2018-08-24T00:56:27.722Z,95.20
2018-08-24T00:59:02.877Z,95.40
2018-08-24T01:01:31.347Z,95.50
2018-08-24T01:03:59.805Z,95.80
2018-08-24T01:06:28.270Z,95.50
2018-08-24T01:08:57.117Z,95.80
2018-08-24T01:11:30.995Z,95.60
2018-08-24T01:13:59.375Z,95.60
2018-08-24T01:16:33.267Z,95.80
2018-08-24T01:19:01.801Z,95.80
2018-08-24T01:21:30.282Z,95.80
2018-08-24T01:23:58.727Z,95.90
2018-08-24T01:26:27.327Z,95.90
2018-08-24T01:28:55.904Z,96.00
2018-08-24T01:31:24.337Z,95.90
2018-08-24T01:33:52.872Z,95.70
2018-08-24T01:36:21.359Z,95.60
2018-08-24T01:38:50.035Z,95.20
2018-08-24T01:41:18.481Z,95.10
2018-08-24T01:43:46.833Z,95.10
2018-08-24T01:46:16.059Z,95.00
2018-08-24T01:48:44.446Z,95.10
2018-08-24T01:51:13.068Z,95.00
2018-08-24T01:53:41.544Z,94.60
2018-08-24T01:56:09.957Z,94.70
2018-08-24T01:58:38.372Z,94.80
2018-08-24T02:01:06.884Z,94.80
2018-08-24T02:03:35.276Z,94.90
2018-08-24T02:06:06.299Z,94.80
2018-08-24T02:08:35.830Z,95.10
2018-08-24T02:11:08.693Z,95.30
2018-08-24T02:13:42.730Z,95.30
2018-08-24T02:16:11.173Z,95.50
2018-08-24T02:18:45.025Z,95.30
2018-08-24T02:21:18.939Z,95.10
2018-08-24T02:23:47.486Z,95.40
2018-08-24T02:26:15.943Z,95.40
2018-08-24T02:28:44.439Z,95.40
2018-08-24T02:31:12.950Z,95.20
2018-08-24T02:33:41.362Z,95.10
2018-08-24T02:36:10.746Z,95.10
2018-08-24T02:38:39.907Z,95.20
2018-08-24T02:41:08.366Z,95.30
2018-08-24T02:43:36.757Z,95.40
2018-08-24T02:46:05.295Z,95.50
2018-08-24T02:48:33.707Z,95.40
2018-08-24T02:51:02.132Z,95.60
2018-08-24T02:53:30.532Z,95.60
2018-08-24T02:55:59.035Z,95.80
2018-08-24T02:58:27.562Z,95.80
2018-08-24T03:00:55.987Z,95.70
2018-08-24T03:03:24.350Z,96.00
2018-08-24T03:05:52.694Z,96.00
2018-08-24T03:08:21.161Z,96.00
2018-08-24T03:10:49.565Z,95.80
2018-08-24T03:13:17.963Z,96.00
2018-08-24T03:15:46.377Z,96.00
2018-08-24T03:18:14.837Z,95.90
2018-08-24T03:20:43.266Z,96.00
2018-08-24T03:23:11.634Z,96.10
2018-08-24T03:25:40.099Z,96.30
2018-08-24T03:28:08.494Z,96.60
2018-08-24T03:30:36.958Z,96.70
2018-08-24T03:33:05.480Z,96.90
2018-08-24T03:35:33.854Z,96.90
2018-08-24T03:38:02.314Z,96.80
2018-08-24T03:40:30.689Z,96.90
2018-08-24T03:42:59.104Z,96.60
2018-08-24T03:45:27.554Z,96.70
2018-08-24T03:47:55.941Z,96.70
2018-08-24T03:50:24.460Z,96.80
2018-08-24T03:52:53.147Z,96.80
2018-08-24T03:55:21.641Z,96.60
2018-08-24T03:57:50.048Z,96.40
2018-08-24T04:00:18.682Z,96.50
2018-08-24T04:02:47.639Z,96.60
2018-08-24T04:05:17.114Z,96.60
2018-08-24T04:07:45.679Z,96.80
2018-08-24T04:10:14.094Z,96.80
2018-08-24T04:12:42.601Z,96.90
2018-08-24T04:15:11.064Z,96.80
2018-08-24T04:17:42.040Z,96.70
2018-08-24T04:20:10.466Z,96.50
2018-08-24T04:22:39.112Z,96.30
2018-08-24T04:25:07.928Z,96.50
2018-08-24T04:27:36.398Z,96.40
2018-08-24T04:30:05.099Z,96.20
2018-08-24T04:32:33.960Z,96.20
2018-08-24T04:35:02.761Z,96.20
2018-08-24T04:37:31.219Z,96.00
2018-08-24T04:39:59.645Z,96.10
2018-08-24T04:42:28.221Z,96.10
2018-08-24T04:44:56.684Z,96.10
2018-08-24T04:47:25.260Z,96.00
2018-08-24T04:49:54.561Z,95.90
2018-08-24T04:52:23.427Z,95.80
2018-08-24T04:54:52.076Z,95.90
2018-08-24T04:57:20.514Z,96.10
2018-08-24T04:59:48.931Z,96.20
2018-08-24T05:02:17.346Z,96.10
2018-08-24T05:04:45.733Z,96.10
2018-08-24T05:07:14.131Z,96.10
2018-08-24T05:09:42.722Z,96.20
2018-08-24T05:12:11.099Z,96.40
2018-08-24T05:14:39.608Z,96.30
2018-08-24T05:17:08.051Z,96.30
2018-08-24T05:19:36.433Z,96.40
2018-08-24T05:22:04.885Z,96.30
2018-08-24T05:24:33.355Z,96.20
2018-08-24T05:27:01.915Z,96.30
2018-08-24T05:29:30.719Z,96.30
2018-08-24T05:31:59.227Z,96.20
2018-08-24T05:34:27.640Z,96.50
2018-08-24T05:36:56.138Z,96.40
2018-08-24T05:39:24.732Z,96.50
2018-08-24T05:41:53.093Z,96.60
2018-08-24T05:44:21.521Z,96.80
2018-08-24T05:46:49.908Z,96.30
2018-08-24T05:49:18.338Z,95.10
2018-08-24T05:51:46.743Z,94.00
2018-08-24T05:54:15.216Z,93.10
2018-08-24T05:56:43.607Z,92.20
2018-08-24T05:59:12.297Z,91.90
2018-08-24T06:01:40.719Z,91.60
2018-08-24T06:04:09.073Z,91.80
2018-08-24T06:06:37.466Z,91.50
2018-08-24T06:09:14.175Z,91.50
2018-08-24T06:11:43.366Z,91.30
2018-08-24T06:14:12.844Z,91.10
2018-08-24T06:17:44.450Z,91.30
2018-08-24T06:20:12.935Z,91.30
2018-08-24T06:22:41.364Z,91.00
2018-08-24T06:25:10.068Z,91.10
2018-08-24T06:27:38.668Z,91.20
2018-08-24T06:30:07.419Z,91.10
2018-08-24T06:32:35.823Z,91.20
2018-08-24T06:35:04.249Z,91.30
2018-08-24T06:37:32.847Z,91.50
2018-08-24T06:40:01.218Z,91.60
2018-08-24T06:42:29.658Z,91.70
2018-08-24T06:44:58.140Z,92.00
2018-08-24T06:47:26.642Z,91.70
2018-08-24T06:49:55.072Z,91.70
2018-08-24T06:52:23.498Z,91.60
2018-08-24T06:54:51.943Z,91.40
2018-08-24T06:57:20.410Z,91.00
2018-08-24T06:59:49.073Z,90.70
2018-08-24T07:02:17.622Z,90.90
2018-08-24T07:04:46.025Z,91.10
2018-08-24T07:07:14.428Z,90.70
2018-08-24T07:09:43.767Z,90.60
2018-08-24T07:12:13.445Z,90.50
2018-08-24T07:14:42.750Z,90.40
2018-08-24T07:17:11.146Z,90.50
2018-08-24T07:19:39.678Z,90.70
2018-08-24T07:22:08.475Z,90.70
2018-08-24T07:24:36.920Z,90.80
2018-08-24T07:27:05.331Z,90.40
2018-08-24T07:29:33.711Z,90.30
2018-08-24T07:32:02.295Z,90.30
2018-08-24T07:34:30.661Z,90.20
2018-08-24T07:36:59.226Z,90.30
2018-08-24T07:39:27.737Z,90.60
2018-08-24T07:41:56.197Z,90.70
2018-08-24T07:44:24.591Z,91.00
2018-08-24T07:46:53.071Z,91.10
2018-08-24T07:49:21.638Z,91.10
2018-08-24T07:51:50.108Z,91.20
2018-08-24T07:54:18.755Z,91.30
2018-08-24T07:56:47.150Z,91.10
2018-08-24T07:59:15.546Z,91.00
2018-08-24T08:01:44.038Z,90.80
2018-08-24T08:04:12.627Z,90.70
2018-08-24T08:06:41.031Z,90.50
2018-08-24T08:09:09.442Z,90.40
2018-08-24T08:11:40.944Z,90.40
2018-08-24T08:14:09.895Z,90.30
2018-08-24T08:16:38.293Z,90.00
2018-08-24T08:19:06.894Z,90.20
2018-08-24T08:21:35.375Z,90.30
2018-08-24T08:24:03.821Z,90.30
2018-08-24T08:26:32.241Z,90.40
2018-08-24T08:29:00.719Z,90.50
2018-08-24T08:31:29.237Z,90.30
2018-08-24T08:33:57.698Z,90.00
2018-08-24T08:36:26.373Z,89.80
2018-08-24T08:38:55.032Z,89.80
2018-08-24T08:41:23.471Z,89.00
2018-08-24T08:43:52.016Z,88.50
2018-08-24T08:46:20.434Z,87.40
2018-08-24T08:48:48.986Z,86.90
2018-08-24T08:51:17.493Z,87.20
2018-08-24T08:53:45.961Z,87.40
2018-08-24T08:56:14.561Z,87.30
2018-08-24T08:58:43.136Z,86.60
2018-08-24T09:01:11.627Z,86.30
2018-08-24T09:03:40.082Z,86.80
2018-08-24T09:06:08.579Z,86.70
2018-08-24T09:08:37.007Z,86.70
2018-08-24T09:11:05.466Z,88.30
2018-08-24T09:13:34.067Z,88.30
2018-08-24T09:16:02.661Z,87.30
2018-08-24T09:18:36.444Z,87.50
2018-08-24T09:21:10.360Z,88.10
2018-08-24T09:23:44.193Z,88.70
2018-08-24T09:26:18.044Z,88.60
2018-08-24T09:28:47.207Z,88.30
2018-08-24T09:31:18.915Z,87.30
2018-08-24T09:33:47.639Z,87.90
2018-08-24T09:36:19.528Z,86.40
2018-08-24T09:38:48.703Z,87.40
2018-08-24T09:41:17.103Z,86.90
2018-08-24T09:43:50.897Z,86.50
2018-08-24T09:46:19.494Z,86.00
2018-08-24T09:48:53.356Z,85.90
2018-08-24T09:51:27.078Z,85.80
2018-08-24T09:54:00.748Z,85.60
2018-08-24T09:56:30.337Z,85.90
2018-08-24T09:58:59.303Z,85.50
2018-08-24T10:01:33.121Z,85.50
2018-08-24T10:04:06.952Z,85.20
2018-08-24T10:06:40.864Z,84.80
2018-08-24T10:09:10.578Z,84.10
2018-08-24T10:11:38.980Z,84.20
2018-08-24T10:14:07.779Z,84.30
2018-08-24T10:16:36.306Z,85.30
2018-08-24T10:19:04.737Z,85.70
2018-08-24T10:21:33.111Z,85.20
2018-08-24T10:24:01.679Z,85.10
2018-08-24T10:26:30.101Z,85.30
2018-08-24T10:28:58.601Z,84.20
2018-08-24T10:31:27.022Z,84.20
2018-08-24T10:33:55.550Z,84.20
2018-08-24T10:36:23.964Z,83.90
2018-08-24T10:38:52.491Z,83.50
2018-08-24T10:41:20.933Z,84.20
2018-08-24T10:43:49.353Z,83.60
2018-08-24T10:46:17.977Z,84.00
2018-08-24T10:48:46.559Z,84.40
2018-08-24T10:51:15.009Z,84.00
2018-08-24T10:53:43.464Z,83.80
2018-08-24T10:56:11.981Z,83.10
2018-08-24T10:58:40.593Z,83.20
2018-08-24T11:01:09.276Z,83.20
2018-08-24T11:03:37.763Z,82.60
2018-08-24T11:06:06.291Z,82.30
2018-08-24T11:08:34.835Z,82.60
2018-08-24T11:11:03.254Z,82.40
2018-08-24T11:13:31.713Z,83.60
2018-08-24T11:16:00.217Z,83.10
2018-08-24T11:18:28.675Z,82.80
2018-08-24T11:20:58.432Z,82.80
2018-08-24T11:23:27.144Z,82.10
2018-08-24T11:25:55.609Z,82.10
2018-08-24T11:28:23.981Z,81.30
2018-08-24T11:30:52.369Z,81.70
2018-08-24T11:33:20.898Z,80.90
2018-08-24T11:35:49.417Z,80.50
2018-08-24T11:38:18.035Z,80.70
2018-08-24T11:40:46.455Z,80.50
2018-08-24T11:43:14.871Z,81.20
2018-08-24T11:45:43.480Z,81.60
2018-08-24T11:48:11.872Z,81.30
2018-08-24T11:50:40.289Z,79.80
2018-08-24T11:53:08.663Z,78.90
2018-08-24T11:55:37.200Z,79.30
2018-08-24T11:58:05.626Z,78.10
2018-08-24T12:00:34.789Z,77.70
2018-08-24T12:03:03.878Z,78.00
2018-08-24T12:05:32.587Z,77.60
2018-08-24T12:08:01.078Z,76.30
2018-08-24T12:10:29.410Z,74.90
2018-08-24T12:12:58.322Z,75.50
2018-08-24T12:15:26.731Z,76.10
2018-08-24T12:17:55.573Z,77.40
2018-08-24T12:20:23.976Z,78.20
2018-08-24T12:22:52.366Z,77.60
2018-08-24T12:25:20.838Z,77.10
2018-08-24T12:27:49.239Z,75.30
2018-08-24T12:30:17.663Z,74.20
2018-08-24T12:32:46.178Z,73.00
2018-08-24T12:35:14.624Z,72.70
2018-08-24T12:37:47.057Z,73.40
2018-08-24T12:40:16.248Z,73.10
2018-08-24T12:42:46.686Z,73.00
2018-08-24T12:45:15.050Z,71.90
2018-08-24T12:47:43.509Z,72.00
2018-08-24T12:50:11.910Z,71.40
2018-08-24T12:52:40.317Z,71.40
2018-08-24T12:55:08.706Z,71.80
2018-08-24T12:57:37.136Z,71.50
2018-08-24T13:00:05.757Z,71.40
2018-08-24T13:02:34.207Z,70.60
2018-08-24T13:05:04.215Z,70.20
2018-08-24T13:07:32.698Z,71.10
2018-08-24T13:10:01.144Z,70.90
2018-08-24T13:12:29.661Z,70.00
2018-08-24T13:14:58.185Z,69.90
2018-08-24T13:17:26.646Z,70.50
2018-08-24T13:19:55.012Z,71.00
2018-08-24T13:22:23.579Z,70.60
2018-08-24T13:24:52.090Z,71.00
2018-08-24T13:27:20.509Z,72.50
2018-08-24T13:29:48.963Z,73.20
2018-08-24T13:32:17.415Z,73.50
2018-08-24T13:34:45.812Z,72.20
2018-08-24T13:37:14.213Z,71.80
2018-08-24T13:39:42.726Z,72.00
2018-08-24T13:42:11.222Z,72.30
2018-08-24T13:44:39.604Z,72.40
2018-08-24T13:47:08.018Z,72.60
2018-08-24T13:49:36.574Z,72.50
2018-08-24T13:52:05.120Z,72.80
2018-08-24T13:54:33.541Z,74.20
2018-08-24T13:57:02.023Z,72.80
2018-08-24T13:59:30.451Z,72.00
2018-08-24T14:01:58.986Z,72.40
2018-08-24T14:04:27.582Z,73.40
2018-08-24T14:06:56.011Z,72.60
2018-08-24T14:09:24.449Z,72.30
2018-08-24T14:11:53.115Z,72.00
2018-08-24T14:14:21.728Z,72.10
2018-08-24T14:16:50.305Z,71.80
2018-08-24T14:19:18.894Z,71.70
2018-08-24T14:21:47.279Z,71.50
2018-08-24T14:24:15.711Z,70.70
2018-08-24T14:26:44.286Z,70.80
2018-08-24T14:29:12.662Z,69.20
2018-08-24T14:31:41.267Z,69.60
2018-08-24T14:34:09.685Z,69.40
2018-08-24T14:36:38.160Z,70.10
2018-08-24T14:39:08.331Z,70.40
2018-08-24T14:41:36.728Z,71.00
2018-08-24T14:44:05.425Z,70.40
2018-08-24T14:46:33.934Z,70.50
2018-08-24T14:49:02.336Z,70.30
2018-08-24T14:51:30.893Z,70.40
2018-08-24T14:53:59.308Z,70.60
2018-08-24T14:56:27.834Z,71.20
2018-08-24T14:58:56.723Z,69.80
2018-08-24T15:01:25.144Z,69.70
2018-08-24T15:03:53.686Z,70.00
2018-08-24T15:06:22.378Z,70.00
2018-08-24T15:08:50.777Z,70.20
2018-08-24T15:11:19.211Z,69.80
2018-08-24T15:13:47.691Z,69.60
2018-08-24T15:16:16.130Z,70.10
2018-08-24T15:18:44.584Z,68.60
2018-08-24T15:21:12.955Z,66.40
2018-08-24T15:23:41.391Z,66.50
2018-08-24T15:26:09.818Z,66.40
2018-08-24T15:28:38.200Z,66.50
2018-08-24T15:31:06.579Z,66.60
2018-08-24T15:33:35.023Z,66.90
2018-08-24T15:36:03.641Z,67.00
2018-08-24T15:38:31.990Z,67.50
2018-08-24T15:41:00.345Z,67.60
2018-08-24T15:43:28.985Z,68.00
2018-08-24T15:45:57.404Z,68.40
2018-08-24T15:48:25.981Z,68.70
2018-08-24T15:50:54.531Z,69.30
2018-08-24T15:53:23.036Z,69.70
2018-08-24T15:55:51.431Z,70.30
2018-08-24T15:58:19.834Z,71.50
2018-08-24T16:00:48.195Z,72.10
2018-08-24T16:03:16.584Z,72.80
2018-08-24T16:05:45.041Z,73.80
2018-08-24T16:08:13.462Z,72.60
2018-08-24T16:10:41.975Z,72.20
2018-08-24T16:13:10.366Z,72.60
2018-08-24T16:15:38.872Z,72.30
2018-08-24T16:18:12.678Z,72.50
2018-08-24T16:20:41.230Z,72.50
2018-08-24T16:23:09.580Z,71.10
2018-08-24T16:25:37.967Z,71.20
2018-08-24T16:28:06.447Z,70.70
2018-08-24T16:30:34.843Z,70.30
2018-08-24T16:33:03.288Z,70.70
2018-08-24T16:35:31.996Z,69.90
2018-08-24T16:38:00.505Z,69.50
2018-08-24T16:40:28.908Z,70.70
2018-08-24T16:42:57.336Z,69.70
2018-08-24T16:45:26.181Z,70.30
2018-08-24T16:47:54.538Z,70.70
2018-08-24T16:50:22.895Z,72.00
2018-08-24T16:52:51.322Z,72.60
2018-08-24T16:55:19.762Z,73.20
2018-08-24T16:57:49.157Z,74.60
2018-08-24T17:00:17.596Z,75.00
2018-08-24T17:02:45.976Z,75.50
2018-08-24T17:05:14.617Z,75.70
2018-08-24T17:07:43.143Z,75.90
2018-08-24T17:10:11.579Z,75.90
2018-08-24T17:12:40.050Z,76.00
2018-08-24T17:15:08.428Z,75.90
2018-08-24T17:17:36.825Z,76.10
2018-08-24T17:20:05.512Z,76.40
2018-08-24T17:22:34.100Z,77.30
2018-08-24T17:25:02.676Z,77.70
2018-08-24T17:27:31.295Z,79.50
2018-08-24T17:30:00.980Z,80.30
2018-08-24T17:32:29.519Z,79.70
2018-08-24T17:34:58.342Z,79.60
2018-08-24T17:37:26.753Z,79.50
2018-08-24T17:39:55.215Z,79.50
2018-08-24T17:42:23.626Z,79.90
2018-08-24T17:44:52.085Z,79.30
2018-08-24T17:47:20.576Z,79.00
2018-08-24T17:49:49.232Z,79.90
2018-08-24T17:52:17.714Z,81.40
2018-08-24T17:54:46.203Z,81.60
2018-08-24T17:57:14.684Z,82.50
2018-08-24T17:59:43.110Z,83.40
2018-08-24T18:02:11.519Z,82.80
2018-08-24T18:04:40.164Z,82.30
2018-08-24T18:07:08.584Z,81.50
2018-08-24T18:09:37.078Z,82.30
2018-08-24T18:12:06.083Z,81.80
2018-08-24T18:14:37.974Z,82.00
2018-08-24T18:17:06.582Z,81.50
2018-08-24T18:19:36.129Z,81.10
2018-08-24T18:22:05.025Z,80.10
2018-08-24T18:24:33.656Z,80.00
2018-08-24T18:27:02.084Z,80.00
2018-08-24T18:29:30.508Z,79.40
2018-08-24T18:31:59.132Z,79.50
2018-08-24T18:34:27.519Z,79.90
2018-08-24T18:36:56.329Z,79.70
2018-08-24T18:39:24.768Z,79.20
2018-08-24T18:41:53.182Z,78.20
2018-08-24T18:44:21.769Z,77.90
2018-08-24T18:46:50.302Z,77.20
2018-08-24T18:49:19.339Z,76.90
2018-08-24T18:51:47.750Z,77.00
2018-08-24T18:54:17.568Z,77.40
2018-08-24T18:56:46.226Z,77.40
2018-08-24T18:59:14.910Z,77.80
2018-08-24T19:01:43.803Z,77.70
2018-08-24T19:04:12.721Z,77.90
2018-08-24T19:06:41.243Z,77.70
2018-08-24T19:09:12.238Z,77.20
2018-08-24T19:11:46.192Z,77.50
2018-08-24T19:14:14.916Z,77.50
2018-08-24T19:16:43.745Z,77.60
2018-08-24T19:19:17.711Z,78.00
2018-08-24T19:21:47.839Z,78.50
2018-08-24T19:24:16.454Z,78.20
2018-08-24T19:26:44.942Z,78.50
2018-08-24T19:29:18.900Z,78.30
2018-08-24T19:31:48.106Z,78.50
2018-08-24T19:34:16.597Z,78.30
2018-08-24T19:36:45.149Z,78.60
2018-08-24T19:39:14.856Z,78.80
2018-08-24T19:41:48.733Z,79.30
2018-08-24T19:44:17.327Z,79.60
2018-08-24T19:46:46.186Z,79.60
2018-08-24T19:49:17.329Z,80.70
2018-08-24T19:51:45.850Z,80.30
2018-08-24T19:54:15.295Z,81.00
2018-08-24T19:56:43.931Z,80.20
2018-08-24T19:59:13.903Z,80.20
2018-08-24T20:01:42.540Z,80.10
2018-08-24T20:04:11.169Z,80.10
2018-08-24T20:06:44.931Z,80.40
2018-08-24T20:09:18.984Z,80.40
2018-08-24T20:11:49.740Z,80.60
2018-08-24T20:14:23.747Z,80.60
2018-08-24T20:16:57.791Z,80.80
2018-08-24T20:19:26.733Z,80.80
2018-08-24T20:21:55.246Z,81.00
2018-08-24T20:24:23.917Z,81.30
2018-08-24T20:26:52.224Z,81.50
2018-08-24T20:29:21.653Z,81.40
2018-08-24T20:31:50.574Z,81.50
2018-08-24T20:34:19.170Z,81.70
2018-08-24T20:36:47.770Z,81.90
2018-08-24T20:39:16.195Z,81.90
2018-08-24T20:41:44.747Z,81.90
2018-08-24T20:44:15.279Z,82.00
2018-08-24T20:46:44.719Z,82.20
2018-08-24T20:49:14.458Z,82.70
2018-08-24T20:51:45.936Z,82.70
2018-08-24T20:54:14.420Z,82.50
2018-08-24T20:56:43.945Z,83.00
2018-08-24T20:59:12.343Z,83.10
2018-08-24T21:01:40.807Z,84.20
2018-08-24T21:04:09.237Z,83.30
2018-08-24T21:06:37.732Z,83.50
2018-08-24T21:09:08.299Z,83.40
2018-08-24T21:11:36.755Z,83.50
2018-08-24T21:14:05.332Z,83.70
2018-08-24T21:16:33.905Z,83.70
2018-08-24T21:19:02.435Z,83.80
2018-08-24T21:21:30.962Z,83.80
2018-08-24T21:23:59.763Z,84.00
2018-08-24T21:26:28.451Z,83.90
2018-08-24T21:28:57.034Z,84.40
2018-08-24T21:31:25.517Z,84.90
2018-08-24T21:33:54.027Z,84.80
2018-08-24T21:36:22.577Z,84.40
2018-08-24T21:38:51.075Z,84.30
2018-08-24T21:41:19.512Z,84.40
2018-08-24T21:43:48.175Z,84.30
2018-08-24T21:46:16.929Z,84.30
2018-08-24T21:48:45.415Z,84.30
2018-08-24T21:51:13.842Z,84.70
2018-08-24T21:53:42.266Z,84.90
2018-08-24T21:56:10.941Z,85.30
2018-08-24T21:58:40.856Z,85.50
2018-08-24T22:06:01.599Z,86.40
2018-08-24T22:08:29.980Z,85.50
2018-08-24T22:10:58.754Z,85.10
2018-08-24T22:13:27.474Z,85.20
2018-08-24T22:15:56.136Z,85.90
2018-08-24T22:18:24.599Z,86.00
2018-08-24T22:20:53.092Z,85.60
2018-08-24T22:23:21.496Z,86.30
2018-08-24T22:25:49.896Z,86.00
2018-08-24T22:28:18.317Z,85.30
2018-08-24T22:30:46.916Z,85.80
2018-08-24T22:33:15.383Z,85.40
2018-08-24T22:35:43.747Z,85.80
2018-08-24T22:38:12.155Z,85.50
2018-08-24T22:40:40.611Z,85.70
2018-08-24T22:43:13.528Z,86.30
2018-08-24T22:45:41.919Z,85.90
2018-08-24T22:48:10.498Z,86.30
2018-08-24T22:50:39.513Z,86.60
2018-08-24T22:53:08.073Z,86.70
2018-08-24T22:55:36.544Z,88.00
2018-08-24T22:58:05.057Z,87.20
2018-08-24T23:00:33.715Z,87.30
2018-08-24T23:03:02.131Z,87.40
2018-08-24T23:05:30.467Z,87.50
2018-08-24T23:07:58.845Z,87.30
2018-08-24T23:10:27.292Z,87.30
2018-08-24T23:12:55.733Z,87.50
2018-08-24T23:15:24.167Z,88.00
2018-08-24T23:17:52.787Z,88.00
2018-08-24T23:20:21.335Z,88.30
2018-08-24T23:22:49.779Z,88.20
2018-08-24T23:25:18.224Z,88.50
2018-08-24T23:27:46.673Z,88.50
2018-08-24T23:30:15.225Z,89.30
2018-08-24T23:32:43.806Z,89.90
2018-08-24T23:35:12.458Z,90.20
2018-08-24T23:37:40.859Z,89.60
2018-08-24T23:40:09.744Z,90.10
2018-08-24T23:42:38.441Z,89.70
2018-08-24T23:45:07.043Z,90.30
2018-08-24T23:47:35.572Z,90.10
2018-08-24T23:50:04.296Z,90.00
2018-08-24T23:52:32.740Z,90.00
2018-08-24T23:55:01.107Z,89.70
2018-08-24T23:57:29.519Z,89.60
2018-08-24T23:59:57.905Z,89.10
